Time;durP1;ratioP1;P1;durP2;ratioP2;P2;SDS_P1;SDS_P2;PMS_P1;PMS_P2;Temp;Humidity;BMP_temperature;BMP_pressure;BME280_temperature;BME280_humidity;BME280_pressure;Samples;Min_cycle;Max_cycle;Signal;HPM_P1;HPM_P2
2022/08/14 00:00:18;;;;;;;1.75;1.65;;;24.00;57.40;;;;;;5094809;28;20316;-71
2022/08/14 00:02:44;;;;;;;1.75;1.65;;;24.00;57.40;;;;;;5094827;28;20254;-71
2022/08/14 00:05:19;;;;;;;1.60;1.50;;;24.00;57.40;;;;;;5111746;28;20234;-70
2022/08/14 00:07:46;;;;;;;1.38;1.38;;;24.00;57.40;;;;;;5094010;28;20215;-71
2022/08/14 00:10:17;;;;;;;1.63;1.52;;;24.00;57.40;;;;;;5094819;28;20209;-71
2022/08/14 00:12:53;;;;;;;1.83;1.73;;;24.00;57.40;;;;;;5111671;28;20180;-71
2022/08/14 00:15:34;;;;;;;1.70;1.60;;;24.00;57.40;;;;;;5094501;28;20194;-71
2022/08/14 00:18:00;;;;;;;1.60;1.50;;;24.00;57.40;;;;;;5110888;28;20263;-71
2022/08/14 00:20:31;;;;;;;1.80;1.70;;;24.00;57.40;;;;;;5094507;28;20184;-71
2022/08/14 00:22:59;;;;;;;1.80;1.70;;;24.00;57.40;;;;;;5112715;28;20184;-71
2022/08/14 00:25:26;;;;;;;1.60;1.50;;;24.00;57.40;;;;;;5094422;28;20183;-71
2022/08/14 00:27:53;;;;;;;1.90;1.80;;;24.00;57.40;;;;;;5110580;28;20336;-71
2022/08/14 00:30:19;;;;;;;1.60;1.50;;;24.00;57.60;;;;;;5112683;28;20175;-71
2022/08/14 00:32:45;;;;;;;1.80;1.70;;;24.00;57.50;;;;;;5094228;28;20184;-71
2022/08/14 00:35:11;;;;;;;1.70;1.60;;;24.00;57.60;;;;;;5094428;28;20207;-71
2022/08/14 00:37:40;;;;;;;1.77;1.67;;;24.00;57.50;;;;;;5093504;28;20303;-71
2022/08/14 00:40:12;;;;;;;1.67;1.58;;;24.00;57.50;;;;;;5112461;28;20184;-71
2022/08/14 00:42:38;;;;;;;2.03;1.83;;;24.00;57.60;;;;;;5094578;28;20273;-71
2022/08/14 00:45:08;;;;;;;1.67;1.58;;;24.00;57.50;;;;;;5111033;28;20612;-71
2022/08/14 00:47:34;;;;;;;1.65;1.55;;;24.00;57.50;;;;;;5093489;28;20277;-71
2022/08/14 00:50:04;;;;;;;2.00;1.90;;;23.90;57.50;;;;;;5107256;28;20191;-71
2022/08/14 00:52:30;;;;;;;1.80;1.70;;;23.90;57.50;;;;;;5073992;28;20188;-71
2022/08/14 00:54:57;;;;;;;1.80;1.70;;;24.00;57.50;;;;;;5091862;28;20272;-71
2022/08/14 00:57:27;;;;;;;1.80;1.70;;;23.90;57.40;;;;;;5056484;28;20277;-71
2022/08/14 00:59:55;;;;;;;1.60;1.50;;;23.90;57.50;;;;;;5074080;28;20208;-71
2022/08/14 01:02:23;;;;;;;2.05;1.95;;;23.90;57.50;;;;;;5092040;28;20260;-71
2022/08/14 01:04:52;;;;;;;1.77;1.67;;;23.90;57.50;;;;;;5091632;28;20204;-71
2022/08/14 01:07:20;;;;;;;1.70;1.60;;;24.00;57.60;;;;;;5078986;28;20625;-71
2022/08/14 01:10:03;;;;;;;1.70;1.60;;;24.00;57.60;;;;;;5112199;28;20180;-71
2022/08/14 01:12:32;;;;;;;1.90;1.80;;;23.90;57.60;;;;;;5112296;28;20252;-71
2022/08/14 01:15:01;;;;;;;1.70;1.60;;;23.90;57.60;;;;;;5111982;28;20180;-71
2022/08/14 01:23:01;;;;;;;1.77;1.67;;;23.90;57.60;;;;;;5112029;28;20195;-71
2022/08/14 01:25:26;;;;;;;1.80;1.40;;;23.90;57.60;;;;;;5112002;28;20245;-71
2022/08/14 01:27:54;;;;;;;1.80;1.70;;;23.90;58.10;;;;;;5076336;28;20251;-71
2022/08/14 01:30:22;;;;;;;1.80;1.70;;;23.90;57.60;;;;;;5111944;28;20188;-71
2022/08/14 01:32:49;;;;;;;1.90;1.80;;;23.90;57.60;;;;;;5110644;28;20276;-71
2022/08/14 01:35:16;;;;;;;1.67;1.58;;;23.90;57.60;;;;;;5111881;28;20179;-71
2022/08/14 01:37:47;;;;;;;1.77;1.67;;;23.90;57.60;;;;;;5076074;28;20227;-71
2022/08/14 01:40:14;;;;;;;1.83;1.60;;;23.90;57.60;;;;;;5093782;28;20266;-71
2022/08/14 01:42:43;;;;;;;1.80;1.70;;;23.90;57.60;;;;;;5110630;28;20180;-71
2022/08/14 01:45:12;;;;;;;2.00;1.90;;;23.90;57.60;;;;;;5113422;28;20250;-71
2022/08/14 01:47:39;;;;;;;1.60;1.50;;;23.90;57.60;;;;;;5114393;28;20287;-71
2022/08/14 01:50:08;;;;;;;1.60;1.50;;;23.90;57.60;;;;;;5115908;28;20657;-71
2022/08/14 01:52:37;;;;;;;1.67;1.58;;;23.90;57.60;;;;;;5097685;28;20213;-71
2022/08/14 01:55:11;;;;;;;1.73;1.63;;;23.90;57.60;;;;;;5096806;28;20578;-71
2022/08/14 01:57:37;;;;;;;1.67;1.58;;;23.90;57.60;;;;;;5096750;28;20264;-70
2022/08/14 02:00:11;;;;;;;1.80;1.70;;;23.90;57.60;;;;;;5097580;28;20216;-71
2022/08/14 02:02:37;;;;;;;1.70;1.60;;;23.90;57.60;;;;;;5097278;28;20180;-71
2022/08/14 02:05:04;;;;;;;1.90;1.80;;;23.90;57.60;;;;;;5096930;28;20180;-71
2022/08/14 02:07:31;;;;;;;1.75;1.65;;;23.80;57.50;;;;;;5096160;28;20208;-71
2022/08/14 02:09:57;;;;;;;1.70;1.60;;;23.90;57.60;;;;;;5097080;28;20184;-71
2022/08/14 02:12:23;;;;;;;1.77;1.67;;;23.90;57.60;;;;;;5113970;28;20220;-71
2022/08/14 02:14:49;;;;;;;1.90;1.80;;;23.90;57.60;;;;;;5115064;28;20194;-71
2022/08/14 02:17:15;;;;;;;1.60;1.55;;;23.80;57.50;;;;;;5096111;28;20241;-71
2022/08/14 02:19:40;;;;;;;1.80;1.70;;;23.80;57.50;;;;;;5096887;28;20257;-71
2022/08/14 02:22:07;;;;;;;1.83;1.73;;;23.80;57.50;;;;;;5096816;28;20226;-71
2022/08/14 02:24:32;;;;;;;1.70;1.60;;;23.80;57.50;;;;;;5113839;28;20220;-71
2022/08/14 02:26:59;;;;;;;1.77;1.67;;;23.80;57.50;;;;;;5109787;28;20207;-71
2022/08/14 02:29:29;;;;;;;1.98;1.75;;;23.80;57.60;;;;;;5096587;28;20191;-70
2022/08/14 02:31:58;;;;;;;1.83;1.70;;;23.80;57.50;;;;;;5114918;28;20180;-71
2022/08/14 02:34:32;;;;;;;1.67;1.58;;;23.90;57.60;;;;;;5113720;28;20183;-71
2022/08/14 02:37:08;;;;;;;1.85;1.75;;;23.80;57.50;;;;;;5095875;28;20187;-71
2022/08/14 02:39:39;;;;;;;1.60;1.50;;;23.80;57.50;;;;;;5113502;28;20168;-71
2022/08/14 02:42:11;;;;;;;1.60;1.50;;;23.80;57.50;;;;;;5114719;28;20704;-71
2022/08/14 02:44:38;;;;;;;1.90;1.80;;;23.80;57.50;;;;;;5114565;28;20187;-71
2022/08/14 02:47:04;;;;;;;1.48;1.38;;;23.80;57.50;;;;;;5095573;28;20631;-71
2022/08/14 02:49:30;;;;;;;1.70;1.60;;;23.80;57.50;;;;;;5078896;28;20266;-70
2022/08/14 02:51:57;;;;;;;1.63;1.55;;;23.80;57.50;;;;;;5096476;28;20179;-71
2022/08/14 02:54:25;;;;;;;1.88;1.77;;;23.80;57.50;;;;;;5114588;28;20182;-71
2022/08/14 02:56:53;;;;;;;1.70;1.60;;;23.80;57.50;;;;;;5094391;28;20180;-71
2022/08/14 02:59:22;;;;;;;2.17;2.08;;;23.80;57.50;;;;;;5113174;28;20231;-71
2022/08/14 03:01:48;;;;;;;1.80;1.70;;;23.80;57.50;;;;;;5096178;28;20268;-71
2022/08/14 03:04:14;;;;;;;1.70;1.60;;;23.80;57.50;;;;;;5079014;28;20263;-71
2022/08/14 03:06:42;;;;;;;2.00;1.85;;;23.80;57.50;;;;;;5095303;28;20184;-71
2022/08/14 03:09:10;;;;;;;2.33;1.90;;;23.80;57.60;;;;;;5096020;28;20298;-71
2022/08/14 03:11:37;;;;;;;2.10;2.00;;;23.80;58.20;;;;;;5095861;28;20188;-71
2022/08/14 03:14:03;;;;;;;1.85;1.75;;;23.80;57.50;;;;;;5113541;28;20180;-71
2022/08/14 03:16:34;;;;;;;1.70;1.60;;;23.80;57.50;;;;;;5113159;28;20211;-71
2022/08/14 03:19:04;;;;;;;1.50;1.40;;;23.80;58.10;;;;;;5095475;28;20270;-70
2022/08/14 03:21:30;;;;;;;1.70;1.60;;;23.80;57.60;;;;;;5095731;28;20180;-71
2022/08/14 03:24:12;;;;;;;1.65;1.55;;;23.80;57.50;;;;;;5078886;28;20223;-71
2022/08/14 03:26:45;;;;;;;1.60;1.50;;;23.80;57.50;;;;;;5078016;28;20183;-71
2022/08/14 03:29:19;;;;;;;1.90;1.80;;;23.80;57.50;;;;;;5095447;28;20207;-71
2022/08/14 03:31:49;;;;;;;1.80;1.70;;;23.70;57.40;;;;;;5078372;28;20549;-71
2022/08/14 03:34:15;;;;;;;1.90;1.80;;;23.80;57.60;;;;;;5113621;28;20244;-71
2022/08/14 03:36:44;;;;;;;1.80;1.70;;;23.80;57.50;;;;;;5094769;28;20184;-71
2022/08/14 03:39:11;;;;;;;1.75;1.65;;;23.80;57.50;;;;;;5095122;28;20273;-71
2022/08/14 03:41:37;;;;;;;1.77;1.67;;;23.80;57.60;;;;;;5113330;28;20172;-71
2022/08/14 03:44:05;;;;;;;1.70;1.60;;;23.80;57.60;;;;;;5078323;28;20215;-71
2022/08/14 03:46:36;;;;;;;1.50;1.40;;;23.80;57.60;;;;;;5111481;28;20184;-71
2022/08/14 03:49:04;;;;;;;2.03;1.92;;;23.80;57.60;;;;;;5095031;28;20299;-71
2022/08/14 03:51:32;;;;;;;1.80;1.70;;;23.70;57.50;;;;;;5097757;28;20180;-71
2022/08/14 03:54:02;;;;;;;2.00;1.90;;;23.70;57.40;;;;;;5094941;28;20188;-71
2022/08/14 03:56:28;;;;;;;1.92;1.83;;;23.80;57.50;;;;;;5113062;28;20192;-71
2022/08/14 03:59:10;;;;;;;1.95;1.85;;;23.80;57.50;;;;;;5077413;28;20220;-71
2022/08/14 04:01:40;;;;;;;1.92;1.83;;;23.80;57.50;;;;;;5113141;28;20184;-71
2022/08/14 04:04:07;;;;;;;1.70;1.60;;;23.80;57.50;;;;;;5094926;28;20199;-71
2022/08/14 04:06:37;;;;;;;1.63;1.52;;;23.70;57.40;;;;;;5093961;28;20216;-71
2022/08/14 04:09:06;;;;;;;1.90;1.80;;;23.80;57.50;;;;;;5094586;28;20317;-70
2022/08/14 04:11:34;;;;;;;1.80;1.70;;;23.70;57.40;;;;;;5112900;28;20188;-71
2022/08/14 04:14:01;;;;;;;1.45;1.35;;;23.70;57.40;;;;;;5111685;28;20184;-71
2022/08/14 04:16:27;;;;;;;1.60;1.50;;;23.80;57.50;;;;;;5094633;28;20195;-71
2022/08/14 04:18:56;;;;;;;1.70;1.60;;;23.70;57.40;;;;;;5093992;28;20303;-71
2022/08/14 04:21:28;;;;;;;1.83;1.73;;;23.70;57.50;;;;;;5094478;28;20184;-71
2022/08/14 04:23:58;;;;;;;1.70;1.60;;;23.80;57.60;;;;;;5112738;28;20187;-71
2022/08/14 04:26:28;;;;;;;1.70;1.60;;;23.70;57.50;;;;;;5094559;28;20274;-70
2022/08/14 04:28:56;;;;;;;2.03;1.85;;;23.70;57.50;;;;;;5110823;28;20208;-71
2022/08/14 04:31:24;;;;;;;1.70;1.60;;;23.70;57.50;;;;;;5094560;28;20184;-71
2022/08/14 04:33:51;;;;;;;1.98;1.65;;;23.70;57.50;;;;;;5112577;28;20180;-71
2022/08/14 04:36:18;;;;;;;1.77;1.67;;;23.70;57.50;;;;;;5094407;28;20681;-71
2022/08/14 04:44:13;;;;;;;1.83;1.73;;;23.70;57.50;;;;;;5112265;28;20192;-70
2022/08/14 04:46:39;;;;;;;1.90;1.80;;;23.70;57.50;;;;;;5076885;28;20176;-71
2022/08/14 04:49:05;;;;;;;1.80;1.70;;;23.70;57.50;;;;;;5077582;28;20631;-71
2022/08/14 04:51:32;;;;;;;1.70;1.60;;;23.70;57.50;;;;;;5094093;28;20188;-71
2022/08/14 04:54:00;;;;;;;1.67;1.58;;;23.70;57.50;;;;;;5094143;28;20191;-71
2022/08/14 04:56:26;;;;;;;1.70;1.60;;;23.70;57.50;;;;;;5112212;28;20184;-71
2022/08/14 04:58:58;;;;;;;1.70;1.60;;;23.70;57.60;;;;;;5092712;28;20239;-71
2022/08/14 05:01:26;;;;;;;1.60;1.50;;;23.70;57.60;;;;;;5057234;28;20185;-71
2022/08/14 05:03:53;;;;;;;1.70;1.60;;;23.70;57.50;;;;;;5073851;28;20192;-71
2022/08/14 05:06:20;;;;;;;1.85;1.75;;;23.70;57.50;;;;;;5091734;28;20183;-71
2022/08/14 05:08:47;;;;;;;1.58;1.48;;;23.70;57.50;;;;;;5056368;28;20209;-71
2022/08/14 05:11:14;;;;;;;1.80;1.70;;;23.70;57.60;;;;;;5091654;28;20181;-71
2022/08/14 05:13:40;;;;;;;1.80;1.70;;;23.70;57.50;;;;;;5073708;28;20652;-71
2022/08/14 05:16:06;;;;;;;1.60;1.50;;;23.70;57.50;;;;;;5056897;28;20274;-71
2022/08/14 05:18:36;;;;;;;1.90;1.80;;;23.70;57.60;;;;;;5073038;28;20225;-71
2022/08/14 05:21:06;;;;;;;1.73;1.63;;;23.70;57.60;;;;;;5094833;28;20177;-71
2022/08/14 05:23:38;;;;;;;1.95;1.80;;;23.70;57.60;;;;;;5071809;28;20233;-71
2022/08/14 05:26:11;;;;;;;1.77;1.67;;;23.60;57.50;;;;;;5097973;28;20184;-71
2022/08/14 05:28:43;;;;;;;1.55;1.48;;;23.70;57.60;;;;;;5097443;28;20204;-70
2022/08/14 05:31:12;;;;;;;1.80;1.70;;;23.70;57.60;;;;;;5097939;28;20561;-71
2022/08/14 05:33:39;;;;;;;2.17;1.73;;;23.70;57.60;;;;;;5097906;28;20215;-71
2022/08/14 05:36:10;;;;;;;1.80;1.70;;;23.60;57.60;;;;;;5080813;28;20180;-71
2022/08/14 05:38:43;;;;;;;1.77;1.67;;;23.60;57.60;;;;;;5097222;28;20750;-71
2022/08/14 05:41:18;;;;;;;1.77;1.67;;;23.60;57.60;;;;;;5114624;28;20176;-71
2022/08/14 05:43:46;;;;;;;1.80;1.70;;;23.60;57.60;;;;;;5077334;28;20191;-71
2022/08/14 05:46:21;;;;;;;1.88;1.77;;;23.70;57.70;;;;;;5077260;28;20189;-71
2022/08/14 05:48:54;;;;;;;1.60;1.50;;;23.60;57.60;;;;;;5083490;28;20682;-71
2022/08/14 05:51:22;;;;;;;1.80;1.70;;;23.60;57.60;;;;;;5097531;28;20262;-71
2022/08/14 05:53:48;;;;;;;2.40;1.80;;;23.60;57.60;;;;;;5114526;28;20219;-71
2022/08/14 05:56:14;;;;;;;2.17;1.90;;;23.60;57.60;;;;;;5080339;28;20191;-71
2022/08/14 05:58:40;;;;;;;1.98;1.88;;;23.70;57.70;;;;;;5096644;28;20220;-71
2022/08/14 06:01:08;;;;;;;1.70;1.60;;;23.60;57.70;;;;;;5080541;28;20267;-70
2022/08/14 06:03:34;;;;;;;1.60;1.50;;;23.70;57.70;;;;;;5097185;28;20180;-71
2022/08/14 06:06:00;;;;;;;1.77;1.50;;;23.60;57.60;;;;;;5115275;28;20191;-71
2022/08/14 06:08:31;;;;;;;1.90;1.80;;;23.70;57.70;;;;;;5096517;28;20211;-71
2022/08/14 06:11:02;;;;;;;1.80;1.70;;;23.70;57.70;;;;;;5096941;28;20184;-71
2022/08/14 06:13:46;;;;;;;1.60;1.50;;;23.70;57.70;;;;;;5097017;28;20214;-71
2022/08/14 06:16:16;;;;;;;1.70;1.60;;;23.70;57.80;;;;;;5115130;28;20248;-71
2022/08/14 06:18:45;;;;;;;1.85;1.75;;;23.60;57.60;;;;;;5079382;28;20212;-71
2022/08/14 06:21:10;;;;;;;1.92;1.83;;;23.70;57.80;;;;;;5097032;28;20191;-71
2022/08/14 06:23:36;;;;;;;1.60;1.50;;;23.60;57.70;;;;;;5115027;28;20188;-71
2022/08/14 06:26:02;;;;;;;1.63;1.52;;;23.70;57.80;;;;;;5096682;28;20180;-71
2022/08/14 06:28:28;;;;;;;1.58;1.50;;;23.60;57.60;;;;;;5113210;28;20257;-71
2022/08/14 06:30:54;;;;;;;1.80;1.70;;;23.70;57.70;;;;;;5114810;28;20191;-71
2022/08/14 06:33:21;;;;;;;1.58;1.48;;;23.60;57.60;;;;;;5114911;28;20188;-71
2022/08/14 06:35:48;;;;;;;1.48;1.38;;;23.70;57.60;;;;;;5114891;28;20208;-71
2022/08/14 06:38:22;;;;;;;1.70;1.60;;;23.60;57.60;;;;;;5095949;28;20207;-71
2022/08/14 06:40:50;;;;;;;1.70;1.60;;;23.60;57.60;;;;;;5096300;28;20183;-71
2022/08/14 06:43:19;;;;;;;1.70;1.60;;;23.60;57.60;;;;;;5096532;28;20676;-71
2022/08/14 06:45:46;;;;;;;1.90;1.80;;;23.60;57.60;;;;;;5096339;28;20187;-71
2022/08/14 06:48:23;;;;;;;1.30;1.30;;;23.60;57.60;;;;;;5095741;28;20204;-71
2022/08/14 06:50:51;;;;;;;2.00;1.90;;;23.60;57.60;;;;;;5113277;28;20664;-71
2022/08/14 06:53:18;;;;;;;1.70;1.60;;;23.60;57.60;;;;;;5113310;28;20246;-71
2022/08/14 06:55:46;;;;;;;1.80;1.70;;;23.70;57.70;;;;;;5096014;28;20184;-71
2022/08/14 06:58:15;;;;;;;1.70;1.60;;;23.70;57.80;;;;;;5112358;28;20265;-71
2022/08/14 07:05:44;;;;;;;2.08;1.98;;;23.70;57.80;;;;;;5114289;28;20176;-71
2022/08/14 07:06:14;;;;;;;1.70;1.60;;;23.60;57.60;;;;;;5114146;28;20368;-71
2022/08/14 07:08:42;;;;;;;1.73;1.63;;;23.60;57.60;;;;;;5095246;28;20225;-71
2022/08/14 07:11:09;;;;;;;1.60;1.50;;;23.70;57.60;;;;;;5078843;28;20252;-71
2022/08/14 07:13:35;;;;;;;1.67;1.58;;;23.60;57.60;;;;;;5096152;28;20608;-71
2022/08/14 07:16:01;;;;;;;1.70;1.60;;;23.60;57.60;;;;;;5095327;28;20184;-71
2022/08/14 07:18:29;;;;;;;2.00;1.90;;;23.70;57.60;;;;;;5111957;28;20223;-71
2022/08/14 07:20:59;;;;;;;1.60;1.50;;;23.60;57.60;;;;;;5096001;28;20179;-71
2022/08/14 07:23:26;;;;;;;1.80;1.70;;;23.60;57.60;;;;;;5095744;28;20181;-71
2022/08/14 07:25:55;;;;;;;1.70;1.60;;;23.70;57.70;;;;;;5095518;28;20199;-71
2022/08/14 07:28:31;;;;;;;1.80;1.70;;;23.60;57.60;;;;;;5094915;28;20709;-71
2022/08/14 07:30:59;;;;;;;1.70;1.60;;;23.60;57.60;;;;;;5113660;28;20180;-71
2022/08/14 07:33:33;;;;;;;1.73;1.63;;;23.60;57.60;;;;;;5095711;28;20184;-70
2022/08/14 07:36:03;;;;;;;2.28;1.60;;;23.70;57.60;;;;;;5113643;28;20184;-71
2022/08/14 07:38:29;;;;;;;1.75;1.65;;;23.70;57.60;;;;;;5077848;28;20314;-71
2022/08/14 07:40:56;;;;;;;2.10;2.00;;;23.60;57.60;;;;;;5113492;28;20176;-71
2022/08/14 07:43:22;;;;;;;1.70;1.60;;;23.60;57.50;;;;;;5112644;28;20191;-71
2022/08/14 07:45:48;;;;;;;1.70;1.60;;;23.70;57.60;;;;;;5098037;28;20212;-71
2022/08/14 07:48:13;;;;;;;1.60;1.50;;;23.70;57.60;;;;;;5094533;28;20296;-71
2022/08/14 07:50:39;;;;;;;1.55;1.45;;;23.60;57.50;;;;;;5112153;28;20188;-71
2022/08/14 07:53:06;;;;;;;1.80;1.70;;;23.70;57.60;;;;;;5095301;28;20184;-71
2022/08/14 07:55:33;;;;;;;1.95;1.85;;;23.60;57.40;;;;;;5078122;28;20188;-71
2022/08/14 07:57:59;;;;;;;1.90;1.80;;;23.70;57.50;;;;;;5112295;28;20216;-70
2022/08/14 08:00:25;;;;;;;1.95;1.85;;;23.70;57.40;;;;;;5113184;28;20202;-71
2022/08/14 08:02:54;;;;;;;2.03;1.92;;;23.70;57.40;;;;;;5111893;28;20235;-71
2022/08/14 08:05:23;;;;;;;2.08;1.98;;;23.80;57.40;;;;;;5112990;28;20659;-71
2022/08/14 08:07:51;;;;;;;1.90;1.80;;;23.80;57.30;;;;;;5112213;28;20265;-71
2022/08/14 08:10:31;;;;;;;1.67;1.58;;;23.80;57.30;;;;;;5094741;28;20176;-71
2022/08/14 08:13:09;;;;;;;1.70;1.60;;;23.90;57.40;;;;;;5094789;28;20241;-71
2022/08/14 08:15:43;;;;;;;1.70;1.60;;;23.90;57.30;;;;;;5094652;28;20189;-71
2022/08/14 08:18:12;;;;;;;1.88;1.77;;;23.90;57.40;;;;;;5112241;28;20242;-71
2022/08/14 08:20:45;;;;;;;1.75;1.65;;;23.90;57.10;;;;;;5077741;28;20233;-71
2022/08/14 08:23:13;;;;;;;1.73;1.63;;;23.90;57.10;;;;;;5112773;28;20176;-71
2022/08/14 08:25:42;;;;;;;1.90;1.80;;;23.90;57.20;;;;;;5112692;28;20177;-71
2022/08/14 08:28:21;;;;;;;1.70;1.60;;;23.90;57.10;;;;;;5094401;28;20203;-71
2022/08/14 08:31:05;;;;;;;1.70;1.60;;;23.90;57.00;;;;;;5094445;28;20720;-71
2022/08/14 08:33:38;;;;;;;2.10;2.00;;;24.00;57.20;;;;;;5111314;28;20556;-71
2022/08/14 08:36:10;;;;;;;2.00;1.90;;;24.00;57.20;;;;;;5094538;28;20187;-71
2022/08/14 08:38:36;;;;;;;1.70;1.60;;;24.00;57.40;;;;;;5093938;28;20254;-71
2022/08/14 08:41:02;;;;;;;1.75;1.65;;;24.00;57.40;;;;;;5094405;28;20168;-71
2022/08/14 08:43:34;;;;;;;1.67;1.58;;;24.00;57.40;;;;;;5111232;28;20176;-71
2022/08/14 08:46:21;;;;;;;1.98;1.88;;;24.00;57.60;;;;;;5112358;28;20187;-71
2022/08/14 08:48:58;;;;;;;1.70;1.60;;;24.00;57.40;;;;;;5076749;28;20298;-71
2022/08/14 08:51:34;;;;;;;1.80;1.70;;;24.10;57.40;;;;;;5094320;28;20543;-70
2022/08/14 08:54:14;;;;;;;2.00;1.90;;;24.10;57.20;;;;;;5111569;28;20205;-71
2022/08/14 08:56:48;;;;;;;2.00;1.90;;;24.10;57.20;;;;;;5111013;28;20561;-71
2022/08/14 08:59:29;;;;;;;2.10;2.00;;;24.10;57.20;;;;;;5110594;28;20294;-71
2022/08/14 09:02:04;;;;;;;1.90;1.80;;;24.10;57.30;;;;;;5110838;28;20176;-71
2022/08/14 09:04:34;;;;;;;1.80;1.70;;;24.10;57.30;;;;;;5112320;28;20172;-71
2022/08/14 09:06:59;;;;;;;1.60;1.50;;;24.10;57.40;;;;;;5093773;28;20263;-69
2022/08/14 09:09:29;;;;;;;1.88;1.77;;;24.10;57.40;;;;;;5076752;28;20329;-71
2022/08/14 09:11:58;;;;;;;2.30;2.10;;;24.10;57.40;;;;;;5094148;28;20184;-71
2022/08/14 09:14:30;;;;;;;2.17;2.00;;;24.10;57.30;;;;;;5110872;28;20184;-71
2022/08/14 09:16:58;;;;;;;1.90;1.80;;;24.10;57.40;;;;;;5111923;28;20184;-70
2022/08/14 09:19:25;;;;;;;2.15;1.90;;;24.10;57.50;;;;;;5093527;28;20219;-71
2022/08/14 09:21:52;;;;;;;1.83;1.73;;;24.10;57.40;;;;;;5112099;28;20180;-71
2022/08/14 09:24:18;;;;;;;1.65;1.55;;;24.10;57.40;;;;;;5112266;28;20183;-71
2022/08/14 09:26:44;;;;;;;1.90;1.80;;;24.10;57.40;;;;;;5111516;28;20284;-71
2022/08/14 09:29:12;;;;;;;1.88;1.77;;;24.10;57.40;;;;;;5093119;28;20710;-71
2022/08/14 09:31:45;;;;;;;1.80;1.70;;;24.10;57.30;;;;;;5093809;28;20191;-71
2022/08/14 09:34:26;;;;;;;1.98;1.88;;;24.10;57.10;;;;;;5093685;28;20188;-71
2022/08/14 09:37:16;;;;;;;1.75;1.65;;;24.10;57.10;;;;;;5093781;28;20172;-71
2022/08/14 09:40:07;;;;;;;1.77;1.67;;;24.10;57.10;;;;;;5077194;28;20200;-71
2022/08/14 09:42:43;;;;;;;1.92;1.83;;;24.20;57.30;;;;;;5112019;28;20222;-71
2022/08/14 09:45:29;;;;;;;1.83;1.73;;;24.20;57.40;;;;;;5076951;28;20199;-71
2022/08/14 09:47:56;;;;;;;1.75;1.65;;;24.10;57.40;;;;;;5110917;28;20744;-71
2022/08/14 09:50:30;;;;;;;1.83;1.73;;;24.10;57.30;;;;;;5111744;28;20188;-71
2022/08/14 09:52:57;;;;;;;1.80;1.70;;;24.10;57.20;;;;;;5093662;28;20187;-71
2022/08/14 09:55:26;;;;;;;1.70;1.60;;;24.20;57.30;;;;;;5093657;28;20191;-71
2022/08/14 09:58:06;;;;;;;1.77;1.67;;;24.10;57.20;;;;;;5092793;28;20214;-71
2022/08/14 10:00:47;;;;;;;1.77;1.67;;;24.20;57.20;;;;;;5111847;28;20322;-71
2022/08/14 10:03:34;;;;;;;1.73;1.63;;;24.10;57.20;;;;;;5093911;28;20201;-71
2022/08/14 10:06:23;;;;;;;1.67;1.58;;;24.20;57.30;;;;;;5094995;28;20176;-70
2022/08/14 10:09:07;;;;;;;2.05;1.95;;;24.20;57.20;;;;;;5096483;28;20271;-71
2022/08/14 10:11:36;;;;;;;1.90;1.73;;;24.10;57.00;;;;;;5097504;28;20250;-71
2022/08/14 10:14:15;;;;;;;1.75;1.65;;;24.20;57.10;;;;;;5115383;28;20191;-71
2022/08/14 10:16:53;;;;;;;1.73;1.63;;;24.10;57.00;;;;;;5097137;28;20183;-71
2022/08/14 10:19:22;;;;;;;1.90;1.80;;;24.20;57.20;;;;;;5114451;28;20212;-71
2022/08/14 10:22:06;;;;;;;1.60;1.50;;;24.20;57.30;;;;;;5097184;28;20207;-71
2022/08/14 10:24:38;;;;;;;1.80;1.70;;;24.20;57.10;;;;;;5115063;28;20187;-71
2022/08/14 10:27:22;;;;;;;2.08;1.88;;;24.20;57.20;;;;;;5096715;28;20180;-71
2022/08/14 10:29:59;;;;;;;1.83;1.67;;;24.20;57.20;;;;;;5113916;28;20184;-71
2022/08/14 10:32:26;;;;;;;2.00;1.90;;;24.20;57.10;;;;;;5114852;28;20198;-71
2022/08/14 10:35:07;;;;;;;1.75;1.65;;;24.20;57.10;;;;;;5096671;28;20280;-71
2022/08/14 10:37:48;;;;;;;1.70;1.60;;;24.20;57.10;;;;;;5114387;28;20208;-71
2022/08/14 10:40:32;;;;;;;1.80;1.70;;;24.20;57.10;;;;;;5096942;28;20180;-71
2022/08/14 10:42:58;;;;;;;1.90;1.80;;;24.20;57.20;;;;;;5114960;28;20620;-71
2022/08/14 10:45:32;;;;;;;2.03;1.80;;;24.20;57.10;;;;;;5096367;28;20222;-71
2022/08/14 10:48:00;;;;;;;1.80;1.70;;;24.20;57.30;;;;;;5097101;28;20195;-71
2022/08/14 10:50:35;;;;;;;1.60;1.60;;;24.20;57.40;;;;;;5096435;28;20191;-71
2022/08/14 10:53:04;;;;;;;1.80;1.70;;;24.20;57.30;;;;;;5109278;28;20191;-71
2022/08/14 10:55:39;;;;;;;1.88;1.77;;;24.20;57.20;;;;;;5093944;28;20181;-71
2022/08/14 10:58:11;;;;;;;1.70;1.60;;;24.20;57.20;;;;;;5058812;28;20264;-71
2022/08/14 11:00:40;;;;;;;1.70;1.60;;;24.20;57.40;;;;;;5059297;28;20181;-71
2022/08/14 11:03:13;;;;;;;1.75;1.65;;;24.20;57.20;;;;;;5093884;28;20569;-71
2022/08/14 11:05:46;;;;;;;1.73;1.60;;;24.20;56.80;;;;;;5075781;28;20192;-71
2022/08/14 11:08:16;;;;;;;1.90;1.80;;;24.20;56.90;;;;;;5093067;28;20209;-71
2022/08/14 11:10:54;;;;;;;1.70;1.60;;;24.20;57.00;;;;;;5075877;28;20664;-71
2022/08/14 11:13:27;;;;;;;1.90;1.77;;;24.20;57.00;;;;;;5075539;28;20267;-71
2022/08/14 11:15:56;;;;;;;1.75;1.65;;;24.20;57.10;;;;;;5093476;28;20211;-71
2022/08/14 11:18:22;;;;;;;1.80;1.70;;;24.20;56.90;;;;;;5090697;28;20216;-71
2022/08/14 11:20:53;;;;;;;1.77;1.67;;;24.20;57.00;;;;;;5075567;28;20192;-71
2022/08/14 11:23:38;;;;;;;1.80;1.70;;;24.20;56.80;;;;;;5093412;28;20188;-71
2022/08/14 11:26:06;;;;;;;1.77;1.67;;;24.20;56.90;;;;;;5058748;28;20181;-70
2022/08/14 11:28:37;;;;;;;1.73;1.63;;;24.30;57.10;;;;;;5080683;28;20196;-71
2022/08/14 11:31:07;;;;;;;1.67;1.58;;;24.30;56.90;;;;;;5078813;28;20195;-71
2022/08/14 11:33:35;;;;;;;2.10;1.50;;;24.30;56.80;;;;;;5113716;28;20185;-71
2022/08/14 11:36:06;;;;;;;1.70;1.60;;;24.20;56.70;;;;;;5095311;28;20187;-70
2022/08/14 11:38:42;;;;;;;1.92;1.50;;;24.20;56.90;;;;;;5077897;28;20212;-71
2022/08/14 11:41:10;;;;;;;1.80;1.70;;;24.30;57.00;;;;;;5094926;28;20184;-71
2022/08/14 11:43:45;;;;;;;1.60;1.50;;;24.30;56.80;;;;;;5112266;28;20173;-71
2022/08/14 11:46:12;;;;;;;1.73;1.63;;;24.20;56.70;;;;;;5095304;28;20190;-71
2022/08/14 11:48:52;;;;;;;1.70;1.60;;;24.30;56.90;;;;;;5112686;28;20214;-71
2022/08/14 11:51:27;;;;;;;1.70;1.60;;;24.20;56.90;;;;;;5112098;28;20246;-71
2022/08/14 11:54:02;;;;;;;1.83;1.73;;;24.20;56.80;;;;;;5095414;28;20274;-71
2022/08/14 11:56:40;;;;;;;1.85;1.75;;;24.20;57.00;;;;;;5111585;28;20183;-71
2022/08/14 11:59:16;;;;;;;2.13;1.70;;;24.30;57.00;;;;;;5077480;28;20218;-71
2022/08/14 12:01:44;;;;;;;1.70;1.60;;;24.20;56.80;;;;;;5113163;28;20183;-71
2022/08/14 12:04:20;;;;;;;1.65;1.55;;;24.30;56.80;;;;;;5094786;28;20275;-70
2022/08/14 12:07:06;;;;;;;1.85;1.75;;;24.30;56.90;;;;;;5112201;28;20195;-71
2022/08/14 12:09:37;;;;;;;1.88;1.77;;;24.30;56.80;;;;;;5112443;28;20194;-71
2022/08/14 12:12:24;;;;;;;1.70;1.60;;;24.30;57.00;;;;;;5077843;28;20180;-71
2022/08/14 12:14:59;;;;;;;1.50;1.40;;;24.30;57.00;;;;;;5077748;28;20188;-70
2022/08/14 12:17:32;;;;;;;1.70;1.60;;;24.30;56.70;;;;;;5094150;28;20225;-71
2022/08/14 12:20:05;;;;;;;1.60;1.50;;;24.30;56.60;;;;;;5112943;28;20262;-71
2022/08/14 12:22:42;;;;;;;1.65;1.55;;;24.30;56.60;;;;;;5094499;28;20180;-71
2022/08/14 12:25:18;;;;;;;1.60;1.50;;;24.30;56.60;;;;;;5112785;28;20567;-71
2022/08/14 12:27:51;;;;;;;1.35;1.33;;;24.30;56.40;;;;;;5111073;28;20211;-71
2022/08/14 12:30:34;;;;;;;1.73;1.60;;;24.30;56.60;;;;;;5077343;28;20278;-71
2022/08/14 12:33:03;;;;;;;1.83;1.73;;;24.30;56.70;;;;;;5094167;28;20579;-71
2022/08/14 12:35:38;;;;;;;1.65;1.55;;;24.30;56.40;;;;;;5094340;28;20184;-71
2022/08/14 12:38:04;;;;;;;1.50;1.40;;;24.30;56.70;;;;;;5093662;28;20253;-70
2022/08/14 12:40:30;;;;;;;1.35;1.35;;;24.30;56.60;;;;;;5094603;28;20196;-70
2022/08/14 12:43:04;;;;;;;1.50;1.50;;;24.30;56.70;;;;;;5111322;28;20639;-71
2022/08/14 12:45:34;;;;;;;2.28;2.17;;;24.30;56.50;;;;;;5077220;28;20199;-71
2022/08/14 12:48:04;;;;;;;1.70;1.60;;;24.30;56.30;;;;;;5111721;28;20273;-71
2022/08/14 12:50:41;;;;;;;1.40;1.40;;;24.30;56.40;;;;;;5094483;28;20207;-71
2022/08/14 12:53:11;;;;;;;1.65;1.55;;;24.30;56.30;;;;;;5112477;28;20536;-70
2022/08/14 12:55:40;;;;;;;1.70;1.60;;;24.30;56.70;;;;;;5112386;28;20189;-71
2022/08/14 12:58:07;;;;;;;1.63;1.52;;;24.30;56.40;;;;;;5092932;28;20239;-71
2022/08/14 13:00:38;;;;;;;1.70;1.60;;;24.30;57.00;;;;;;5094042;28;20187;-71
2022/08/14 13:03:04;;;;;;;1.75;1.65;;;24.30;56.70;;;;;;5111225;28;20186;-71
2022/08/14 13:05:36;;;;;;;1.52;1.42;;;24.30;56.70;;;;;;5077203;28;20188;-71
2022/08/14 13:08:05;;;;;;;1.55;1.40;;;24.30;56.70;;;;;;5076505;28;20208;-71
2022/08/14 13:10:34;;;;;;;1.75;1.65;;;24.30;56.30;;;;;;5093913;28;20734;-71
2022/08/14 13:13:01;;;;;;;1.80;1.70;;;24.30;56.70;;;;;;5110907;28;20188;-71
2022/08/14 13:15:27;;;;;;;1.75;1.65;;;24.30;56.50;;;;;;5094236;28;20241;-71
2022/08/14 13:17:55;;;;;;;1.63;1.52;;;24.30;56.60;;;;;;5093179;28;20220;-71